Time;durP1;ratioP1;P1;durP2;ratioP2;P2;SDS_P1;SDS_P2;PMS_P1;PMS_P2;Temp;Humidity;BMP_temperature;BMP_pressure;BME280_temperature;BME280_humidity;BME280_pressure;Samples;Min_cycle;Max_cycle;Signal;HPM_P1;HPM_P2
2024/01/24 00:00:04;;;;;;;2.77;1.50;;;10.20;99.90;;;;;;5076130;28;20181;-67
2024/01/24 00:02:36;;;;;;;3.90;1.60;;;10.40;99.90;;;;;;5067084;28;20632;-70
2024/01/24 00:05:01;;;;;;;2.80;1.37;;;10.50;99.90;;;;;;5071511;28;20433;-68
2024/01/24 00:07:28;;;;;;;3.00;1.10;;;10.60;99.90;;;;;;5057348;28;20419;-69
2024/01/24 00:09:53;;;;;;;1.70;1.20;;;10.80;99.90;;;;;;5066841;28;20250;-68
2024/01/24 00:12:19;;;;;;;3.37;1.53;;;11.00;99.90;;;;;;5058401;28;20520;-70
2024/01/24 00:14:44;;;;;;;5.03;1.80;;;11.20;99.90;;;;;;5063888;28;20347;-70
2024/01/24 00:17:10;;;;;;;2.10;1.20;;;11.40;99.90;;;;;;5066642;28;20618;-69
2024/01/24 00:19:36;;;;;;;2.70;1.37;;;11.60;99.90;;;;;;5059898;28;20233;-69
2024/01/24 00:22:03;;;;;;;2.60;1.10;;;11.70;99.90;;;;;;5064979;28;20216;-66
2024/01/24 00:24:28;;;;;;;2.33;1.30;;;11.80;99.90;;;;;;5057916;28;20427;-68
2024/01/24 00:26:54;;;;;;;1.63;1.00;;;11.90;99.90;;;;;;5056951;28;20533;-66
2024/01/24 00:29:19;;;;;;;1.83;1.20;;;12.00;99.90;;;;;;5058954;28;20188;-67
2024/01/24 00:31:48;;;;;;;2.43;0.97;;;12.00;99.90;;;;;;5062085;28;20268;-70
2024/01/24 00:34:15;;;;;;;2.73;1.37;;;12.10;99.90;;;;;;5072760;28;20197;-68
2024/01/24 00:36:40;;;;;;;5.20;1.50;;;12.10;99.90;;;;;;5062896;28;20448;-67
2024/01/24 00:39:07;;;;;;;2.37;1.30;;;12.20;99.90;;;;;;5065244;28;20425;-69
2024/01/24 00:41:33;;;;;;;2.50;1.30;;;12.20;99.90;;;;;;5073676;28;20219;-67
2024/01/24 00:43:59;;;;;;;2.10;1.30;;;12.20;99.90;;;;;;5050272;28;20795;-66
2024/01/24 00:46:24;;;;;;;4.87;1.40;;;12.20;99.90;;;;;;5069990;28;20205;-67
2024/01/24 00:48:50;;;;;;;4.33;1.53;;;12.20;99.90;;;;;;5069889;28;20267;-67
2024/01/24 00:51:16;;;;;;;5.20;1.67;;;12.30;99.90;;;;;;5074913;28;20212;-67
2024/01/24 00:53:48;;;;;;;2.63;1.43;;;12.30;99.90;;;;;;5074533;28;20197;-69
2024/01/24 00:56:14;;;;;;;2.73;1.20;;;12.30;99.90;;;;;;5046203;28;20263;-65
2024/01/24 00:58:39;;;;;;;4.50;1.50;;;12.40;99.90;;;;;;5066694;28;20427;-67
2024/01/24 01:01:05;;;;;;;4.57;2.27;;;12.50;99.90;;;;;;5072255;28;20217;-68
2024/01/24 01:03:30;;;;;;;3.17;1.23;;;12.50;99.90;;;;;;5065847;28;20204;-68
2024/01/24 01:05:56;;;;;;;6.97;1.83;;;12.60;99.90;;;;;;5067533;28;20212;-69
2024/01/24 01:08:22;;;;;;;2.10;1.40;;;12.60;99.90;;;;;;5069369;28;20470;-67
2024/01/24 01:10:47;;;;;;;4.90;1.60;;;12.60;99.90;;;;;;5061250;28;20264;-67
2024/01/24 01:13:13;;;;;;;2.60;1.30;;;12.60;99.90;;;;;;5067068;28;20197;-67
2024/01/24 01:15:38;;;;;;;2.20;1.30;;;12.60;99.90;;;;;;5063287;28;20200;-67
2024/01/24 01:18:04;;;;;;;3.53;1.37;;;12.60;99.90;;;;;;5049595;28;20529;-67
2024/01/24 01:20:31;;;;;;;5.33;2.00;;;12.60;99.90;;;;;;5041251;28;20220;-67
2024/01/24 01:22:57;;;;;;;4.33;1.90;;;12.60;99.90;;;;;;5062336;28;20215;-67
2024/01/24 01:25:23;;;;;;;2.33;1.30;;;12.60;99.90;;;;;;5072395;28;20440;-67
2024/01/24 01:27:48;;;;;;;4.80;1.50;;;12.70;99.90;;;;;;5073437;28;20177;-66
2024/01/24 01:30:14;;;;;;;3.10;1.30;;;12.70;99.90;;;;;;5065548;28;20199;-67
2024/01/24 01:32:40;;;;;;;5.47;1.80;;;12.70;99.90;;;;;;5062255;28;20196;-67
2024/01/24 01:35:06;;;;;;;2.93;1.57;;;12.80;99.90;;;;;;5068977;28;20201;-66
2024/01/24 01:37:32;;;;;;;3.20;1.20;;;12.70;99.90;;;;;;5077435;28;20193;-67
2024/01/24 01:39:58;;;;;;;3.07;1.33;;;12.70;99.90;;;;;;5074455;28;20479;-66
2024/01/24 01:42:23;;;;;;;3.07;1.87;;;12.70;99.90;;;;;;5070454;28;20227;-67
2024/01/24 01:44:50;;;;;;;2.20;1.20;;;12.80;99.90;;;;;;5065907;28;20547;-67
2024/01/24 01:47:16;;;;;;;5.20;1.60;;;12.70;99.90;;;;;;5075670;28;20439;-66
2024/01/24 01:49:43;;;;;;;3.50;1.37;;;12.80;99.90;;;;;;5063043;28;20196;-69
2024/01/24 01:52:10;;;;;;;3.73;1.33;;;12.80;99.90;;;;;;5056238;28;20924;-67
2024/01/24 01:54:37;;;;;;;2.57;1.33;;;12.90;99.90;;;;;;5062497;28;20443;-66
2024/01/24 01:57:04;;;;;;;2.20;1.20;;;13.00;99.90;;;;;;5063504;28;20681;-68
2024/01/24 01:59:31;;;;;;;2.57;1.50;;;13.00;99.90;;;;;;5077150;28;20480;-67
2024/01/24 02:01:59;;;;;;;4.60;1.23;;;13.00;99.90;;;;;;5063580;28;20459;-66
2024/01/24 02:04:26;;;;;;;3.00;1.73;;;13.00;99.90;;;;;;5068531;28;20420;-67
2024/01/24 02:06:55;;;;;;;2.80;1.60;;;13.00;99.90;;;;;;5074252;28;20633;-72
2024/01/24 02:09:21;;;;;;;7.70;1.80;;;13.10;99.90;;;;;;5054834;28;20894;-67
2024/01/24 02:11:47;;;;;;;3.20;1.50;;;13.00;99.90;;;;;;5071220;28;20455;-68
2024/01/24 02:14:13;;;;;;;3.60;1.53;;;13.00;99.90;;;;;;5063472;28;20946;-68
2024/01/24 02:16:38;;;;;;;4.90;1.57;;;13.10;99.90;;;;;;5063083;28;20240;-66
2024/01/24 02:19:06;;;;;;;3.30;1.60;;;13.10;99.90;;;;;;5066698;28;20193;-67
2024/01/24 02:21:32;;;;;;;2.10;1.37;;;13.00;99.90;;;;;;5070561;28;20606;-68
2024/01/24 02:23:59;;;;;;;2.60;1.07;;;13.00;99.90;;;;;;5073561;28;20555;-68
2024/01/24 02:26:25;;;;;;;2.67;1.23;;;13.00;99.90;;;;;;5063011;28;20470;-69
2024/01/24 02:28:50;;;;;;;2.90;1.33;;;13.00;99.90;;;;;;5066019;28;20455;-67
2024/01/24 02:31:16;;;;;;;3.10;1.20;;;13.00;99.90;;;;;;5071318;28;20328;-66
2024/01/24 02:33:41;;;;;;;3.60;1.40;;;13.00;99.90;;;;;;5068035;28;20201;-66
2024/01/24 02:36:08;;;;;;;2.80;1.40;;;13.00;99.90;;;;;;5071201;28;20223;-67
2024/01/24 02:38:33;;;;;;;2.93;1.00;;;13.00;99.90;;;;;;5073595;28;20196;-68
2024/01/24 02:40:59;;;;;;;2.13;1.17;;;13.10;99.90;;;;;;5057004;28;20507;-67
2024/01/24 02:43:24;;;;;;;2.63;1.30;;;13.10;99.90;;;;;;5072242;28;20300;-68
2024/01/24 02:45:51;;;;;;;3.00;1.20;;;13.10;99.90;;;;;;5073989;28;20298;-68
2024/01/24 02:48:17;;;;;;;2.80;1.23;;;13.20;99.90;;;;;;5057896;28;20190;-67
2024/01/24 02:50:42;;;;;;;2.23;1.00;;;13.20;99.90;;;;;;5065761;28;20435;-68
2024/01/24 02:53:08;;;;;;;3.23;1.00;;;13.20;99.90;;;;;;5075075;28;20408;-66
2024/01/24 02:55:34;;;;;;;2.07;1.20;;;13.20;99.90;;;;;;5067697;28;20209;-67
2024/01/24 02:57:59;;;;;;;1.30;0.80;;;13.30;99.90;;;;;;5072244;28;20291;-68
2024/01/24 03:00:27;;;;;;;1.97;1.07;;;13.40;99.90;;;;;;5072635;28;20194;-67
2024/01/24 03:02:53;;;;;;;1.37;0.80;;;13.40;99.90;;;;;;5056586;28;20209;-67
2024/01/24 03:05:18;;;;;;;1.70;0.90;;;13.40;99.90;;;;;;5068100;28;20470;-67
2024/01/24 03:07:44;;;;;;;3.60;0.90;;;13.40;99.90;;;;;;5073457;28;20189;-70
2024/01/24 03:10:09;;;;;;;1.53;0.80;;;13.40;99.90;;;;;;5075267;28;20173;-68
2024/01/24 03:12:35;;;;;;;2.00;0.87;;;13.40;99.90;;;;;;5066780;28;20632;-65
2024/01/24 03:15:01;;;;;;;2.63;1.33;;;13.40;99.90;;;;;;5074598;28;20220;-67
2024/01/24 03:17:26;;;;;;;3.87;1.10;;;13.40;99.90;;;;;;5046473;28;20433;-68
2024/01/24 03:19:52;;;;;;;2.03;1.00;;;13.40;99.90;;;;;;5065551;28;20205;-67
2024/01/24 03:22:18;;;;;;;1.83;0.70;;;13.40;99.90;;;;;;5077216;28;20652;-68
2024/01/24 03:24:44;;;;;;;1.23;0.70;;;13.40;99.90;;;;;;5077083;28;20184;-69
2024/01/24 03:27:09;;;;;;;3.50;0.80;;;13.40;99.90;;;;;;5044865;28;20451;-67
2024/01/24 03:29:35;;;;;;;1.60;0.80;;;13.40;99.90;;;;;;5068114;28;20470;-66
2024/01/24 03:32:01;;;;;;;1.50;0.73;;;13.50;99.90;;;;;;5067321;28;20208;-68
2024/01/24 03:34:30;;;;;;;2.60;0.80;;;13.50;99.90;;;;;;5056169;28;20493;-67
2024/01/24 03:36:56;;;;;;;1.00;0.70;;;13.50;99.90;;;;;;5061009;28;20592;-67
2024/01/24 03:39:21;;;;;;;1.00;0.70;;;13.50;99.90;;;;;;5068395;28;20439;-66
2024/01/24 03:41:47;;;;;;;0.80;0.50;;;13.60;99.90;;;;;;5063104;28;20753;-68
2024/01/24 03:44:13;;;;;;;1.87;0.60;;;13.60;99.90;;;;;;5048460;28;20176;-67
2024/01/24 03:46:38;;;;;;;0.80;0.50;;;13.60;99.90;;;;;;5074785;28;20201;-68
2024/01/24 03:49:04;;;;;;;1.00;0.60;;;13.60;99.90;;;;;;5064233;28;20256;-67
2024/01/24 03:51:30;;;;;;;1.50;0.80;;;13.60;99.90;;;;;;5055798;28;20613;-67
2024/01/24 03:53:56;;;;;;;1.57;0.60;;;13.60;99.90;;;;;;5063224;28;20198;-68
2024/01/24 03:56:22;;;;;;;1.33;0.80;;;13.50;99.90;;;;;;5073493;28;20481;-68
2024/01/24 03:58:47;;;;;;;0.90;0.60;;;13.40;99.90;;;;;;5056995;28;20423;-68
2024/01/24 04:01:13;;;;;;;1.20;0.60;;;13.40;99.90;;;;;;5068039;28;20209;-67
2024/01/24 04:03:39;;;;;;;1.10;0.80;;;13.40;99.90;;;;;;5067083;28;20189;-67
2024/01/24 04:06:04;;;;;;;2.70;0.60;;;13.50;99.90;;;;;;5072592;28;20201;-68
2024/01/24 04:08:30;;;;;;;2.03;0.60;;;13.50;99.90;;;;;;5068653;28;20593;-66
2024/01/24 04:10:56;;;;;;;0.80;0.50;;;13.50;99.90;;;;;;5060148;28;20559;-66
2024/01/24 04:13:21;;;;;;;1.30;0.50;;;13.60;99.90;;;;;;5068054;28;20204;-68
2024/01/24 04:15:47;;;;;;;1.03;0.50;;;13.60;99.90;;;;;;5063601;28;20609;-68
2024/01/24 04:18:12;;;;;;;1.10;0.60;;;13.60;99.90;;;;;;5070552;28;20192;-66
2024/01/24 04:20:38;;;;;;;0.90;0.50;;;13.60;99.90;;;;;;5066939;28;20181;-66
2024/01/24 04:23:03;;;;;;;1.17;0.60;;;13.60;99.90;;;;;;5076464;28;20212;-68
2024/01/24 04:25:29;;;;;;;1.07;0.50;;;13.70;99.90;;;;;;5062956;28;20240;-67
2024/01/24 04:27:55;;;;;;;1.00;0.50;;;13.60;99.90;;;;;;5077759;28;20188;-68
2024/01/24 04:30:21;;;;;;;0.90;0.60;;;13.60;99.90;;;;;;5078678;28;20810;-67
2024/01/24 04:32:46;;;;;;;2.00;1.47;;;13.60;99.90;;;;;;5063025;28;20563;-68
2024/01/24 04:35:12;;;;;;;0.90;0.57;;;13.60;99.90;;;;;;5068479;28;20542;-65
2024/01/24 04:37:38;;;;;;;1.23;0.70;;;13.60;99.90;;;;;;5067386;28;20212;-67
2024/01/24 04:40:04;;;;;;;1.07;0.67;;;13.70;99.90;;;;;;5073570;28;20196;-67
2024/01/24 04:42:30;;;;;;;1.60;0.97;;;13.70;99.90;;;;;;5056805;28;20472;-68
2024/01/24 04:44:56;;;;;;;1.83;0.60;;;13.60;99.90;;;;;;5061878;28;20423;-67
2024/01/24 04:47:21;;;;;;;0.80;0.50;;;13.50;99.90;;;;;;5063683;28;20181;-68
2024/01/24 04:49:47;;;;;;;0.80;0.50;;;13.40;99.90;;;;;;5056731;28;20574;-65
2024/01/24 04:52:15;;;;;;;1.40;0.50;;;13.50;99.90;;;;;;5064754;28;20204;-68
2024/01/24 04:54:41;;;;;;;2.23;1.00;;;13.50;99.90;;;;;;5067703;28;20200;-66
2024/01/24 04:57:07;;;;;;;0.83;0.50;;;13.40;99.90;;;;;;5076748;28;20498;-67
2024/01/24 04:59:33;;;;;;;0.80;0.50;;;13.30;99.90;;;;;;5060975;28;20190;-68
2024/01/24 05:01:59;;;;;;;1.10;0.70;;;13.30;99.90;;;;;;5070216;28;20205;-69
2024/01/24 05:04:25;;;;;;;0.83;0.50;;;13.30;99.90;;;;;;5071018;28;20601;-69
2024/01/24 05:06:52;;;;;;;1.20;0.60;;;13.30;99.90;;;;;;5064719;28;20436;-69
2024/01/24 05:09:18;;;;;;;1.10;0.50;;;13.30;99.90;;;;;;5063662;28;20481;-68
2024/01/24 05:11:44;;;;;;;1.33;0.67;;;13.20;99.90;;;;;;5063705;28;20847;-68
2024/01/24 05:14:09;;;;;;;1.43;0.70;;;13.10;99.90;;;;;;5065785;28;20425;-67
2024/01/24 05:16:40;;;;;;;1.57;1.10;;;13.10;99.90;;;;;;5064180;28;20613;-68
2024/01/24 05:19:06;;;;;;;1.67;0.60;;;13.00;99.90;;;;;;5063577;28;20423;-67
2024/01/24 05:21:39;;;;;;;1.10;0.70;;;13.10;99.90;;;;;;5069289;28;20512;-68
2024/01/24 05:24:05;;;;;;;0.90;0.70;;;13.10;99.90;;;;;;5066094;28;20730;-68
2024/01/24 05:26:31;;;;;;;2.90;0.90;;;13.20;99.90;;;;;;5060712;28;20478;-69
2024/01/24 05:28:56;;;;;;;2.80;0.90;;;13.20;99.90;;;;;;5059352;28;20230;-67
2024/01/24 05:31:22;;;;;;;1.00;0.60;;;13.30;99.90;;;;;;5063081;28;20555;-68
2024/01/24 05:33:47;;;;;;;1.80;0.97;;;13.30;99.90;;;;;;5071215;28;20613;-67
2024/01/24 05:36:14;;;;;;;1.83;0.70;;;13.20;99.90;;;;;;5067129;28;20499;-72
2024/01/24 05:38:39;;;;;;;2.40;0.80;;;13.00;99.90;;;;;;5071538;28;20196;-68
2024/01/24 05:41:05;;;;;;;1.67;0.80;;;12.80;99.90;;;;;;5077765;28;20513;-68
2024/01/24 05:43:30;;;;;;;4.40;1.10;;;12.60;99.90;;;;;;5066893;28;20200;-69
2024/01/24 05:45:56;;;;;;;1.47;0.70;;;12.40;99.90;;;;;;5069370;28;20209;-68
2024/01/24 05:48:22;;;;;;;5.20;1.30;;;12.40;99.90;;;;;;5064579;28;20194;-73
2024/01/24 05:50:47;;;;;;;3.00;1.03;;;12.40;99.90;;;;;;5071482;28;20187;-69
2024/01/24 05:53:13;;;;;;;3.33;1.33;;;12.30;99.90;;;;;;5063550;28;20227;-67
2024/01/24 05:55:38;;;;;;;8.93;1.87;;;12.40;99.90;;;;;;5060239;28;20208;-69
2024/01/24 05:58:05;;;;;;;3.17;1.03;;;12.40;99.90;;;;;;5077797;28;20219;-68
2024/01/24 06:00:31;;;;;;;6.97;1.47;;;12.40;99.90;;;;;;5062358;28;20220;-70
2024/01/24 06:02:57;;;;;;;5.40;1.63;;;12.40;99.90;;;;;;5064488;28;20558;-67
2024/01/24 06:05:22;;;;;;;3.57;1.43;;;12.50;99.90;;;;;;5067693;28;20198;-68
2024/01/24 06:07:49;;;;;;;4.27;1.53;;;12.50;99.90;;;;;;5063009;28;20614;-67
2024/01/24 06:10:15;;;;;;;2.90;1.50;;;12.50;99.90;;;;;;5059614;28;20178;-69
2024/01/24 06:12:41;;;;;;;4.90;1.37;;;12.40;99.90;;;;;;5071640;28;20494;-71
2024/01/24 06:15:07;;;;;;;6.17;1.27;;;12.40;99.90;;;;;;5066908;28;20760;-72
2024/01/24 06:17:34;;;;;;;6.60;1.43;;;12.40;99.90;;;;;;5072862;28;20199;-70
2024/01/24 06:20:00;;;;;;;4.20;1.60;;;12.50;99.90;;;;;;5068584;28;20434;-73
2024/01/24 06:22:25;;;;;;;7.27;2.03;;;12.50;99.90;;;;;;5073279;28;20774;-68
2024/01/24 06:24:51;;;;;;;6.40;2.10;;;12.40;99.90;;;;;;5073163;28;20511;-71
2024/01/24 06:27:17;;;;;;;4.90;2.10;;;12.50;99.90;;;;;;5061381;28;20218;-72
2024/01/24 06:29:43;;;;;;;7.83;1.90;;;12.50;99.90;;;;;;5065582;28;20307;-71
2024/01/24 06:32:08;;;;;;;5.70;1.60;;;12.50;99.90;;;;;;5064498;28;20474;-71
2024/01/24 06:34:34;;;;;;;7.37;2.00;;;12.60;99.90;;;;;;5067346;28;20201;-72
2024/01/24 06:36:59;;;;;;;15.07;2.87;;;12.70;99.90;;;;;;5062178;28;20301;-72
2024/01/24 06:39:25;;;;;;;8.63;2.90;;;12.70;99.90;;;;;;5063582;28;20227;-71
2024/01/24 06:41:51;;;;;;;14.90;3.30;;;12.60;99.90;;;;;;5067392;28;20279;-73
2024/01/24 06:44:17;;;;;;;13.27;3.00;;;12.60;99.90;;;;;;5065049;28;20407;-71
2024/01/24 06:46:43;;;;;;;17.23;3.60;;;12.60;99.90;;;;;;5070811;28;20226;-71
2024/01/24 06:49:12;;;;;;;12.93;3.13;;;12.50;99.90;;;;;;5069585;28;20319;-74
2024/01/24 06:51:38;;;;;;;12.40;3.10;;;12.60;99.90;;;;;;5063278;28;20441;-70
2024/01/24 06:54:05;;;;;;;12.47;3.53;;;12.50;99.90;;;;;;5063070;28;20411;-72
2024/01/24 06:56:30;;;;;;;13.17;3.57;;;12.50;99.90;;;;;;5048355;28;20471;-71
2024/01/24 06:58:56;;;;;;;14.63;3.80;;;12.40;99.90;;;;;;5067889;28;20488;-71
2024/01/24 07:01:22;;;;;;;12.30;4.13;;;12.40;99.90;;;;;;5069459;28;20216;-71
2024/01/24 07:03:48;;;;;;;14.43;4.20;;;12.40;99.90;;;;;;5081807;28;20195;-71
2024/01/24 07:06:14;;;;;;;22.10;5.30;;;12.30;99.90;;;;;;5071341;28;20241;-71
2024/01/24 07:08:40;;;;;;;16.00;4.03;;;12.10;99.90;;;;;;5070506;28;20479;-71
2024/01/24 07:11:06;;;;;;;21.67;4.60;;;12.10;99.90;;;;;;5074545;28;20434;-70
2024/01/24 07:13:32;;;;;;;20.40;3.87;;;12.00;99.90;;;;;;5069585;28;20418;-71
2024/01/24 07:16:00;;;;;;;13.83;3.83;;;12.00;99.90;;;;;;5030153;28;20466;-72
2024/01/24 07:18:26;;;;;;;18.07;4.67;;;12.00;99.90;;;;;;5064966;28;20211;-74
2024/01/24 07:20:52;;;;;;;13.97;4.60;;;11.90;99.90;;;;;;5061646;28;20790;-70
2024/01/24 07:23:17;;;;;;;11.93;4.10;;;11.90;99.90;;;;;;5062134;28;20481;-73
2024/01/24 07:25:43;;;;;;;13.97;4.87;;;11.90;99.90;;;;;;5062704;28;20231;-69
2024/01/24 07:28:09;;;;;;;28.00;5.70;;;12.00;99.90;;;;;;5064668;28;20183;-73
2024/01/24 07:30:34;;;;;;;20.73;4.27;;;11.90;99.90;;;;;;5049775;28;20192;-69
2024/01/24 07:33:03;;;;;;;20.43;4.53;;;11.90;99.90;;;;;;5066307;28;20186;-73
2024/01/24 07:35:28;;;;;;;16.00;3.93;;;11.90;99.90;;;;;;5050031;28;20258;-74
2024/01/24 07:37:54;;;;;;;23.73;5.07;;;11.90;99.90;;;;;;5038764;28;20413;-72
2024/01/24 07:40:20;;;;;;;22.13;4.70;;;11.80;99.90;;;;;;5065425;28;20267;-70
2024/01/24 07:42:45;;;;;;;18.83;4.37;;;11.80;99.90;;;;;;5064935;28;20317;-71
2024/01/24 07:45:11;;;;;;;17.10;4.17;;;11.90;99.90;;;;;;5061306;28;20177;-71
2024/01/24 07:47:37;;;;;;;18.57;5.53;;;11.90;99.90;;;;;;5062816;28;20220;-72
2024/01/24 07:50:03;;;;;;;17.17;4.97;;;12.00;99.90;;;;;;5059334;28;20506;-72
2024/01/24 07:52:28;;;;;;;19.33;4.43;;;12.00;99.90;;;;;;5058618;28;20351;-72
2024/01/24 07:54:54;;;;;;;19.97;4.60;;;12.00;99.90;;;;;;5072035;28;20458;-71
2024/01/24 07:57:19;;;;;;;17.27;3.80;;;12.00;99.90;;;;;;5058685;28;20246;-73
2024/01/24 07:59:45;;;;;;;15.90;4.30;;;12.00;99.90;;;;;;5061710;28;20493;-74
2024/01/24 08:02:12;;;;;;;26.07;6.17;;;12.00;99.90;;;;;;5067092;28;20266;-70
2024/01/24 08:04:38;;;;;;;26.47;6.33;;;11.90;99.90;;;;;;5065358;28;20189;-70
2024/01/24 08:07:04;;;;;;;21.13;6.10;;;12.00;99.90;;;;;;5060323;28;20508;-72
2024/01/24 08:09:30;;;;;;;24.63;6.47;;;12.00;99.90;;;;;;5062367;28;20219;-70
2024/01/24 08:11:57;;;;;;;17.13;5.70;;;12.10;99.90;;;;;;5070562;28;20432;-73
2024/01/24 08:14:23;;;;;;;17.47;4.40;;;12.00;99.90;;;;;;5058700;28;20446;-72
2024/01/24 08:17:10;;;;;;;26.10;5.47;;;12.10;99.90;;;;;;5059152;28;20640;-72
2024/01/24 08:19:36;;;;;;;22.80;5.17;;;12.10;99.90;;;;;;5063322;28;20235;-73
2024/01/24 08:22:03;;;;;;;29.07;6.10;;;12.10;99.90;;;;;;5065632;28;20468;-74
2024/01/24 08:24:29;;;;;;;17.57;5.30;;;12.10;99.90;;;;;;5060238;28;20571;-74
2024/01/24 08:26:54;;;;;;;16.23;4.70;;;12.10;99.90;;;;;;5065541;28;20528;-75
2024/01/24 08:29:27;;;;;;;14.50;4.77;;;12.10;99.90;;;;;;5064968;28;20218;-76
2024/01/24 08:31:52;;;;;;;25.10;6.60;;;12.00;99.90;;;;;;5030105;28;20463;-72
2024/01/24 08:34:18;;;;;;;18.70;5.00;;;12.00;99.90;;;;;;5065693;28;20430;-76
2024/01/24 08:36:44;;;;;;;16.57;5.07;;;12.00;99.90;;;;;;5061028;28;20221;-73
2024/01/24 08:39:10;;;;;;;19.93;5.53;;;12.20;99.90;;;;;;5062501;28;20194;-71
2024/01/24 08:41:36;;;;;;;23.83;5.47;;;12.20;99.90;;;;;;5062416;28;20518;-72
2024/01/24 08:44:02;;;;;;;26.30;6.80;;;12.10;99.90;;;;;;5063786;28;20426;-73
2024/01/24 08:46:28;;;;;;;20.43;5.37;;;12.10;99.90;;;;;;5052466;28;20442;-74
2024/01/24 08:48:53;;;;;;;16.27;4.30;;;12.10;99.90;;;;;;5062780;28;20438;-74
2024/01/24 08:51:21;;;;;;;27.47;6.07;;;12.10;99.90;;;;;;5045239;28;20506;-73
2024/01/24 08:53:46;;;;;;;26.10;5.67;;;12.10;99.90;;;;;;5046020;28;20184;-74
2024/01/24 08:56:12;;;;;;;27.07;5.07;;;12.00;99.90;;;;;;5072762;28;20541;-71
2024/01/24 08:58:38;;;;;;;18.20;5.27;;;12.00;99.90;;;;;;5080951;28;20205;-75
2024/01/24 09:01:04;;;;;;;22.37;5.03;;;12.00;99.90;;;;;;5053260;28;20185;-76
2024/01/24 09:03:30;;;;;;;35.90;6.63;;;12.10;99.90;;;;;;5067171;28;20196;-76
2024/01/24 09:05:55;;;;;;;24.23;5.57;;;12.10;99.90;;;;;;5081223;28;20446;-75
2024/01/24 09:08:21;;;;;;;28.73;5.87;;;12.10;99.90;;;;;;5070293;28;20188;-76
2024/01/24 09:10:47;;;;;;;15.37;5.50;;;12.10;99.90;;;;;;5073640;28;20180;-77
2024/01/24 09:13:13;;;;;;;32.80;6.13;;;12.00;99.90;;;;;;5064166;28;20211;-76
2024/01/24 09:15:38;;;;;;;22.90;5.60;;;12.10;99.90;;;;;;5085923;28;20211;-74
2024/01/24 09:18:06;;;;;;;25.07;6.40;;;12.20;99.90;;;;;;5067824;28;20173;-77
2024/01/24 09:20:32;;;;;;;22.73;5.33;;;12.10;99.90;;;;;;5067832;28;20212;-76
2024/01/24 09:22:58;;;;;;;24.40;6.00;;;12.20;99.90;;;;;;5075711;28;20681;-75
2024/01/24 09:25:24;;;;;;;24.77;5.67;;;12.20;99.90;;;;;;5063702;28;20288;-75
2024/01/24 09:27:50;;;;;;;30.53;6.60;;;12.20;99.90;;;;;;5067884;28;20417;-78
2024/01/24 09:30:16;;;;;;;29.33;6.60;;;12.10;99.90;;;;;;5073739;28;20187;-74
2024/01/24 09:32:41;;;;;;;18.63;5.43;;;12.00;99.90;;;;;;5035558;28;20204;-75
2024/01/24 09:35:07;;;;;;;31.13;6.20;;;12.10;99.90;;;;;;5068877;28;20240;-78
2024/01/24 09:37:33;;;;;;;26.50;6.23;;;12.10;99.90;;;;;;5074941;28;20260;-76
2024/01/24 09:39:59;;;;;;;29.80;6.63;;;12.10;99.90;;;;;;5049201;28;20763;-73
2024/01/24 09:42:26;;;;;;;24.70;6.57;;;12.20;99.90;;;;;;5085163;28;20478;-73
2024/01/24 09:44:52;;;;;;;26.97;6.00;;;12.10;99.80;;;;;;5063736;28;20425;-75
2024/01/24 09:47:24;;;;;;;23.13;5.47;;;12.10;99.90;;;;;;5067629;28;20443;-78
2024/01/24 09:49:50;;;;;;;20.20;5.90;;;12.10;99.90;;;;;;5062310;28;20467;-75
2024/01/24 09:52:25;;;;;;;27.23;6.90;;;12.30;99.40;;;;;;5061487;28;20424;-77
2024/01/24 09:54:57;;;;;;;25.23;5.00;;;12.40;98.60;;;;;;5043272;28;20416;-78
2024/01/24 09:57:24;;;;;;;29.73;7.10;;;12.40;98.30;;;;;;5080820;28;20419;-79
2024/01/24 09:59:51;;;;;;;32.97;8.03;;;12.40;97.70;;;;;;5053260;28;20415;-76
2024/01/24 10:02:17;;;;;;;24.87;6.97;;;12.40;96.70;;;;;;5064400;28;20511;-75
2024/01/24 10:04:46;;;;;;;23.53;5.10;;;12.50;94.80;;;;;;5078758;28;20441;-76
2024/01/24 10:07:13;;;;;;;22.00;6.50;;;12.40;93.80;;;;;;5065357;28;20475;-76
2024/01/24 10:09:38;;;;;;;30.13;7.27;;;12.40;94.00;;;;;;5075448;28;20384;-73
2024/01/24 10:12:04;;;;;;;28.27;6.53;;;12.40;93.70;;;;;;5061066;28;20496;-74
2024/01/24 10:14:30;;;;;;;23.87;7.13;;;12.40;93.10;;;;;;5071708;28;20260;-77
2024/01/24 10:16:57;;;;;;;19.53;6.07;;;12.40;92.70;;;;;;5079171;28;20725;-75
2024/01/24 10:19:24;;;;;;;24.40;7.23;;;12.40;92.80;;;;;;5082969;28;20502;-78
2024/01/24 10:21:51;;;;;;;26.67;6.70;;;12.40;92.20;;;;;;5068006;28;20455;-77
2024/01/24 10:24:17;;;;;;;27.33;6.60;;;12.40;91.90;;;;;;5079623;28;20899;-73
2024/01/24 10:26:46;;;;;;;22.40;5.70;;;12.50;91.90;;;;;;5075698;28;20444;-73
2024/01/24 10:29:12;;;;;;;19.47;5.80;;;12.50;91.70;;;;;;5067358;28;20197;-75
2024/01/24 10:31:38;;;;;;;39.63;7.20;;;12.50;91.30;;;;;;5055164;28;20488;-76
2024/01/24 10:34:04;;;;;;;36.60;8.17;;;12.50;91.10;;;;;;5066369;28;20937;-78
2024/01/24 10:36:30;;;;;;;25.53;6.83;;;12.50;91.30;;;;;;5072632;28;20212;-75
2024/01/24 10:39:00;;;;;;;26.20;5.70;;;12.50;91.00;;;;;;5059802;28;20419;-73
2024/01/24 10:41:39;;;;;;;28.50;6.20;;;12.60;90.90;;;;;;5083034;28;20255;-76
2024/01/24 10:44:07;;;;;;;27.40;6.27;;;12.60;90.50;;;;;;5078317;28;20436;-79
2024/01/24 10:46:36;;;;;;;25.50;6.40;;;12.60;90.50;;;;;;5051957;28;20440;-77
2024/01/24 10:49:03;;;;;;;21.03;6.10;;;12.70;90.20;;;;;;5049654;28;20428;-76
2024/01/24 10:51:29;;;;;;;35.97;7.40;;;12.60;89.80;;;;;;5081022;28;20431;-77
2024/01/24 10:53:56;;;;;;;19.60;5.23;;;12.60;90.00;;;;;;5081443;28;20537;-77
2024/01/24 10:56:28;;;;;;;27.13;7.80;;;12.60;89.70;;;;;;5058735;28;20903;-79
2024/01/24 10:59:01;;;;;;;22.27;5.90;;;12.60;90.00;;;;;;5077979;28;20418;-76
2024/01/24 11:01:45;;;;;;;27.10;8.80;;;12.50;90.10;;;;;;5061661;28;20475;-81
2024/01/24 11:04:33;;;;;;;31.47;9.07;;;12.60;90.20;;;;;;5059907;28;20427;-80
2024/01/24 11:07:11;;;;;;;32.30;6.70;;;12.60;90.30;;;;;;5060773;28;20502;-78
2024/01/24 11:10:08;;;;;;;27.27;6.47;;;12.60;90.00;;;;;;5061199;28;20412;-80
2024/01/24 11:12:34;;;;;;;30.63;7.57;;;12.70;88.40;;;;;;5080199;28;20485;-80
2024/01/24 11:15:08;;;;;;;33.80;7.70;;;12.70;87.00;;;;;;5063530;28;20427;-80
2024/01/24 11:17:46;;;;;;;19.33;4.73;;;12.70;86.30;;;;;;5075569;28;20376;-81
2024/01/24 11:20:14;;;;;;;27.43;5.80;;;12.70;86.50;;;;;;5060319;28;20427;-80
2024/01/24 11:22:50;;;;;;;28.27;8.37;;;12.60;86.50;;;;;;5055986;28;20461;-81
2024/01/24 11:25:37;;;;;;;23.80;6.10;;;12.60;87.40;;;;;;5017111;28;20449;-80
2024/01/24 11:28:03;;;;;;;27.67;6.67;;;12.80;86.70;;;;;;5002276;28;20435;-80
2024/01/24 11:30:51;;;;;;;19.73;5.43;;;12.80;85.10;;;;;;5003428;28;20489;-80
2024/01/24 11:33:18;;;;;;;36.40;7.67;;;12.70;85.60;;;;;;5016556;28;20430;-81
2024/01/24 11:35:48;;;;;;;24.00;7.70;;;12.60;85.00;;;;;;5002830;28;20440;-81
2024/01/24 11:38:43;;;;;;;31.15;7.47;;;12.60;85.30;;;;;;5000770;28;20459;-82
2024/01/24 11:41:13;;;;;;;18.98;6.60;;;12.60;85.20;;;;;;4994808;28;20461;-79
2024/01/24 11:43:45;;;;;;;27.00;7.03;;;12.80;84.90;;;;;;4993535;28;20183;-81
2024/01/24 11:49:07;;;;;;;33.40;8.20;;;12.90;83.50;;;;;;4784809;26;20512;-80
2024/01/24 11:51:32;;;;;;;36.90;7.23;;;12.90;83.00;;;;;;5003572;28;20572;-80
2024/01/24 11:54:02;;;;;;;24.63;6.60;;;12.80;83.30;;;;;;5020021;28;20431;-80
2024/01/24 11:56:29;;;;;;;25.87;6.50;;;12.80;83.50;;;;;;5144773;23;20469;-80
2024/01/24 11:58:57;;;;;;;26.93;6.07;;;12.70;83.50;;;;;;4974176;28;20480;-80
2024/01/24 12:01:29;;;;;;;21.43;7.00;;;12.80;83.70;;;;;;4971986;28;20285;-80
2024/01/24 12:03:56;;;;;;;25.47;7.07;;;12.90;83.60;;;;;;4977198;28;20431;-82
2024/01/24 12:06:31;;;;;;;25.93;7.33;;;13.00;83.10;;;;;;4989794;28;20457;-81
2024/01/24 12:08:57;;;;;;;25.17;6.13;;;13.10;82.50;;;;;;4961186;28;20424;-80
2024/01/24 12:11:28;;;;;;;24.67;5.87;;;13.20;81.10;;;;;;4986010;28;20503;-81
2024/01/24 12:13:55;;;;;;;26.30;6.13;;;13.10;81.00;;;;;;4941431;29;20501;-78
2024/01/24 12:16:25;;;;;;;22.70;5.60;;;13.10;80.90;;;;;;4910049;28;20462;-80
2024/01/24 12:18:57;;;;;;;29.00;7.53;;;13.00;80.70;;;;;;4926400;29;20429;-80
2024/01/24 12:21:45;;;;;;;26.30;6.27;;;13.00;80.30;;;;;;4934307;28;20516;-81
2024/01/24 12:27:07;;;;;;;24.30;5.90;;;13.00;80.30;;;;;;5530761;23;20519;-80
2024/01/24 12:30:00;;;;;;;20.97;6.57;;;13.10;80.80;;;;;;4890303;29;20401;-80
2024/01/24 12:32:38;;;;;;;27.30;7.00;;;13.00;79.70;;;;;;4888278;29;20424;-82
2024/01/24 12:35:06;;;;;;;27.53;6.80;;;13.00;79.20;;;;;;4870403;29;20444;-80
2024/01/24 12:37:38;;;;;;;30.00;6.13;;;13.00;79.40;;;;;;4882085;29;20432;-81
2024/01/24 12:40:09;;;;;;;33.33;8.17;;;13.10;79.40;;;;;;4904198;29;20456;-79
2024/01/24 12:42:39;;;;;;;27.60;6.53;;;13.10;79.10;;;;;;4872926;29;20444;-81
2024/01/24 12:45:14;;;;;;;17.77;6.63;;;13.10;78.30;;;;;;4873468;29;20444;-80
2024/01/24 12:47:42;;;;;;;31.13;6.80;;;13.00;76.20;;;;;;4857041;29;20435;-81